createdAt,value
2022-09-10T00:01:02.327Z,15.00
2022-09-10T00:09:38.162Z,14.47
2022-09-10T00:12:11.208Z,13.70
2022-09-10T00:14:46.150Z,13.67
2022-09-10T00:17:23.192Z,14.30
2022-09-10T00:19:57.013Z,14.43
2022-09-10T00:22:33.545Z,14.60
2022-09-10T00:25:08.917Z,14.60
2022-09-10T00:27:59.966Z,14.30
2022-09-10T00:33:20.682Z,14.93
2022-09-10T00:36:06.460Z,15.90
2022-09-10T00:38:52.774Z,15.00
2022-09-10T00:44:33.798Z,15.43
2022-09-10T00:47:09.590Z,15.73
2022-09-10T00:50:03.521Z,15.67
2022-09-10T00:58:28.972Z,16.73
2022-09-10T01:04:26.254Z,17.10
2022-09-10T01:07:06.797Z,17.73
2022-09-10T01:09:52.222Z,17.93
2022-09-10T01:13:05.905Z,18.87
2022-09-10T01:15:47.626Z,18.13
2022-09-10T01:18:33.571Z,18.77
2022-09-10T01:21:16.997Z,18.33
2022-09-10T01:24:43.682Z,17.70
2022-09-10T01:30:23.510Z,17.30
2022-09-10T01:33:06.369Z,18.07
2022-09-10T01:35:46.710Z,17.07
2022-09-10T01:41:10.426Z,16.33
2022-09-10T01:43:49.799Z,15.50
2022-09-10T01:49:31.006Z,14.53
2022-09-10T01:55:26.656Z,11.50
2022-09-10T01:58:03.819Z,10.20
2022-09-10T02:03:17.529Z,10.33
2022-09-10T02:05:52.385Z,9.97
2022-09-10T02:08:38.488Z,8.47
2022-09-10T02:16:33.703Z,7.33
2022-09-10T02:22:25.702Z,6.27
2022-09-10T02:25:14.539Z,6.17
2022-09-10T02:28:19.951Z,5.70
2022-09-10T02:30:53.750Z,5.63
2022-09-10T02:36:27.587Z,5.57
2022-09-10T02:39:16.025Z,5.27
2022-09-10T02:41:50.062Z,4.97
2022-09-10T02:44:21.363Z,5.47
2022-09-10T02:46:56.979Z,5.50
2022-09-10T02:49:43.437Z,5.23
2022-09-10T02:52:30.185Z,5.60
2022-09-10T02:55:05.317Z,5.13
2022-09-10T02:57:36.924Z,5.67
2022-09-10T03:00:12.300Z,6.03
2022-09-10T03:02:43.709Z,5.47
2022-09-10T03:05:33.979Z,5.00
2022-09-10T03:08:05.240Z,5.60
2022-09-10T03:13:25.925Z,5.10
2022-09-10T03:16:01.238Z,4.93
2022-09-10T03:18:50.784Z,5.20
2022-09-10T03:21:25.862Z,5.27
2022-09-10T03:24:02.615Z,5.67
2022-09-10T03:26:59.429Z,5.67
2022-09-10T03:37:51.351Z,5.27
2022-09-10T03:50:01.657Z,5.53
2022-09-10T03:52:36.760Z,5.60
2022-09-10T03:55:09.570Z,5.10
2022-09-10T04:00:50.529Z,6.00
2022-09-10T04:14:10.010Z,4.97
2022-09-10T04:16:46.659Z,4.53
2022-09-10T04:19:18.536Z,4.63
2022-09-10T04:21:57.982Z,4.77
2022-09-10T04:24:32.834Z,4.90
2022-09-10T04:27:13.008Z,4.60
2022-09-10T04:29:56.991Z,4.60
2022-09-10T04:32:47.748Z,4.60
2022-09-10T04:35:25.406Z,4.33
2022-09-10T04:40:52.899Z,4.77
2022-09-10T04:43:33.065Z,4.03
2022-09-10T04:46:06.316Z,4.60
2022-09-10T04:48:41.993Z,5.57
2022-09-10T04:51:23.697Z,5.50
2022-09-10T04:53:58.149Z,5.70
2022-09-10T04:56:35.579Z,4.90
2022-09-10T04:59:07.085Z,4.73
2022-09-10T05:02:28.718Z,4.53
2022-09-10T05:08:22.825Z,4.70
2022-09-10T05:11:03.166Z,4.60
2022-09-10T05:13:49.383Z,4.20
2022-09-10T05:16:20.545Z,5.17
2022-09-10T05:18:52.343Z,4.20
2022-09-10T05:21:23.666Z,4.37
2022-09-10T05:24:19.522Z,4.40
2022-09-10T05:26:50.764Z,4.17
2022-09-10T05:29:23.248Z,4.00
2022-09-10T05:31:54.612Z,4.27
2022-09-10T05:34:26.692Z,3.57
2022-09-10T05:36:58.111Z,3.87
2022-09-10T05:39:32.554Z,3.60
2022-09-10T05:42:05.425Z,3.53
2022-09-10T05:44:39.221Z,3.50
2022-09-10T05:47:10.583Z,4.13
2022-09-10T05:49:41.805Z,4.47
2022-09-10T05:52:13.467Z,4.37
2022-09-10T05:54:47.577Z,4.20
2022-09-10T05:57:19.211Z,3.87
2022-09-10T05:59:50.375Z,4.20
2022-09-10T06:02:24.325Z,4.47
2022-09-10T06:04:56.753Z,4.07
2022-09-10T06:07:29.724Z,4.00
2022-09-10T06:10:04.470Z,4.10
2022-09-10T06:12:36.994Z,4.40
2022-09-10T06:15:10.231Z,4.13
2022-09-10T06:17:42.340Z,4.30
2022-09-10T06:20:14.689Z,4.00
2022-09-10T06:22:45.741Z,4.13
2022-09-10T06:25:19.526Z,4.10
2022-09-10T06:27:51.514Z,4.00
2022-09-10T06:30:22.804Z,4.57
2022-09-10T06:32:54.722Z,3.67
2022-09-10T06:35:26.304Z,4.00
2022-09-10T06:37:59.372Z,3.77
2022-09-10T06:40:33.922Z,3.83
2022-09-10T06:43:05.831Z,3.90
2022-09-10T06:45:38.130Z,3.93
2022-09-10T06:51:02.078Z,3.67
2022-09-10T06:53:34.601Z,3.93
2022-09-10T06:56:09.050Z,4.23
2022-09-10T06:58:40.272Z,3.80
2022-09-10T07:01:13.628Z,3.57
2022-09-10T07:03:45.783Z,4.03
2022-09-10T07:06:18.981Z,3.47
2022-09-10T07:08:50.144Z,4.30
2022-09-10T07:11:49.238Z,4.17
2022-09-10T07:14:21.165Z,3.77
2022-09-10T07:16:54.183Z,4.40
2022-09-10T07:19:25.226Z,4.20
2022-09-10T07:21:56.440Z,3.77
2022-09-10T07:24:28.063Z,4.10
2022-09-10T07:27:05.857Z,3.60
2022-09-10T07:29:37.026Z,4.10
2022-09-10T07:32:12.884Z,3.77
2022-09-10T07:34:44.986Z,3.77
2022-09-10T07:37:16.778Z,3.63
2022-09-10T07:39:48.428Z,3.70
2022-09-10T07:42:21.450Z,3.70
2022-09-10T07:44:52.880Z,4.00
2022-09-10T07:47:24.695Z,3.77
2022-09-10T07:49:55.976Z,4.07
2022-09-10T07:52:26.973Z,4.27
2022-09-10T07:54:58.166Z,3.70
2022-09-10T07:57:32.546Z,3.70
2022-09-10T08:00:04.696Z,4.03
2022-09-10T08:02:35.542Z,3.40
2022-09-10T08:05:06.813Z,3.70
2022-09-10T08:07:37.885Z,3.23
2022-09-10T08:10:11.204Z,3.60
2022-09-10T08:12:45.156Z,3.97
2022-09-10T08:15:17.821Z,3.57
2022-09-10T08:17:49.481Z,3.67
2022-09-10T08:20:21.036Z,3.60
2022-09-10T08:22:53.270Z,3.53
2022-09-10T08:25:24.728Z,4.03
2022-09-10T08:27:59.375Z,3.67
2022-09-10T08:30:33.209Z,3.97
2022-09-10T08:33:05.886Z,3.70
2022-09-10T08:35:36.879Z,4.00
2022-09-10T08:38:08.295Z,3.83
2022-09-10T08:40:44.113Z,3.67
2022-09-10T08:43:18.440Z,3.97
2022-09-10T08:45:54.384Z,3.70
2022-09-10T08:48:26.618Z,3.80
2022-09-10T08:51:03.443Z,3.57
2022-09-10T08:53:43.062Z,4.00
2022-09-10T08:56:19.971Z,3.77
2022-09-10T08:58:58.131Z,3.13
2022-09-10T09:01:35.719Z,3.60
2022-09-10T09:04:13.089Z,3.53
2022-09-10T09:06:52.344Z,3.60
2022-09-10T09:09:24.890Z,3.60
2022-09-10T09:12:04.255Z,3.40
2022-09-10T09:14:50.831Z,3.63
2022-09-10T09:17:50.821Z,3.77
2022-09-10T09:20:30.650Z,3.37
2022-09-10T09:23:11.939Z,3.57
2022-09-10T09:25:50.675Z,2.97
2022-09-10T09:28:33.005Z,3.20
2022-09-10T09:31:13.331Z,3.10
2022-09-10T09:33:44.971Z,3.60
2022-09-10T09:36:21.275Z,3.30
2022-09-10T09:38:53.744Z,3.00
2022-09-10T09:41:32.165Z,3.33
2022-09-10T09:44:09.372Z,3.20
2022-09-10T09:46:44.036Z,3.40
2022-09-10T09:49:17.769Z,3.57
2022-09-10T09:51:52.810Z,3.57
2022-09-10T09:55:12.563Z,4.00
2022-09-10T09:57:21.270Z,3.70
2022-09-10T09:59:53.450Z,3.77
2022-09-10T10:02:27.800Z,3.90
2022-09-10T10:05:06.623Z,3.80
2022-09-10T10:07:39.303Z,4.07
2022-09-10T10:10:25.142Z,3.67
2022-09-10T10:12:57.965Z,3.63
2022-09-10T10:15:43.448Z,3.63
2022-09-10T10:18:34.734Z,3.27
2022-09-10T10:21:21.366Z,3.70
2022-09-10T10:23:53.497Z,3.83
2022-09-10T10:26:33.232Z,3.60
2022-09-10T10:29:09.085Z,3.47
2022-09-10T10:31:43.337Z,3.93
2022-09-10T10:34:47.812Z,3.80
2022-09-10T10:37:27.710Z,4.50
2022-09-10T10:40:15.684Z,4.60
2022-09-10T10:42:52.964Z,4.23
2022-09-10T10:45:53.235Z,4.43
2022-09-10T10:48:36.084Z,4.33
2022-09-10T10:51:19.807Z,4.70
2022-09-10T10:54:04.604Z,4.80
2022-09-10T10:56:41.781Z,4.77
2022-09-10T10:59:30.799Z,5.00
2022-09-10T11:04:59.228Z,5.13
2022-09-10T11:07:37.817Z,5.13
2022-09-10T11:10:20.369Z,5.30
2022-09-10T11:12:56.603Z,5.40
2022-09-10T11:15:34.541Z,6.13
2022-09-10T11:18:14.437Z,6.20
2022-09-10T11:20:53.553Z,6.07
2022-09-10T11:23:50.597Z,5.90
2022-09-10T11:26:26.308Z,6.83
2022-09-10T11:29:06.856Z,6.70
2022-09-10T11:31:42.216Z,6.53
2022-09-10T11:34:20.647Z,6.33
2022-09-10T11:36:56.995Z,6.80
2022-09-10T11:39:41.409Z,7.10
2022-09-10T11:42:21.091Z,6.97
2022-09-10T11:45:02.948Z,7.20
2022-09-10T11:47:39.471Z,7.23
2022-09-10T11:50:23.554Z,7.07
2022-09-10T11:52:57.478Z,7.20
2022-09-10T11:55:43.098Z,7.43
2022-09-10T11:58:22.498Z,7.73
2022-09-10T12:01:02.437Z,7.20
2022-09-10T12:04:13.001Z,7.20
2022-09-10T12:06:54.580Z,6.40
2022-09-10T12:09:34.319Z,7.73
2022-09-10T12:12:15.071Z,7.37
2022-09-10T12:14:46.656Z,8.00
2022-09-10T12:17:22.213Z,7.70
2022-09-10T12:19:56.920Z,9.37
2022-09-10T12:22:32.087Z,8.93
2022-09-10T12:25:05.488Z,9.60
2022-09-10T12:27:57.606Z,9.53
2022-09-10T12:31:03.788Z,9.87
2022-09-10T12:34:04.224Z,9.47
2022-09-10T12:37:17.628Z,10.23
2022-09-10T12:39:49.652Z,9.63
2022-09-10T12:42:35.963Z,10.17
2022-09-10T12:45:13.126Z,10.17
2022-09-10T12:48:04.263Z,10.87
2022-09-10T12:50:47.554Z,10.53
2022-09-10T12:53:55.659Z,10.60
2022-09-10T12:56:44.535Z,11.17
2022-09-10T12:59:43.385Z,11.10
2022-09-10T13:02:33.585Z,11.27
2022-09-10T13:05:08.147Z,11.37
2022-09-10T13:07:42.743Z,11.77
2022-09-10T13:10:23.549Z,12.00
2022-09-10T13:12:58.021Z,11.67
2022-09-10T13:15:33.374Z,12.70
2022-09-10T13:18:35.389Z,12.13
2022-09-10T13:21:44.667Z,12.30
2022-09-10T13:24:41.152Z,12.83
2022-09-10T13:27:26.167Z,12.73
2022-09-10T13:30:13.722Z,13.43
2022-09-10T13:32:50.456Z,12.90
2022-09-10T13:35:56.616Z,13.33
2022-09-10T13:39:03.081Z,14.13
2022-09-10T13:42:09.865Z,13.70
2022-09-10T13:44:57.206Z,13.60
2022-09-10T13:47:37.483Z,13.80
2022-09-10T13:50:16.220Z,13.97
2022-09-10T13:52:53.131Z,13.73
2022-09-10T13:55:27.277Z,13.73
2022-09-10T13:58:02.745Z,13.70
2022-09-10T14:00:39.889Z,14.63
2022-09-10T14:03:20.003Z,15.33
2022-09-10T14:05:54.298Z,14.83
2022-09-10T14:08:33.620Z,14.23
2022-09-10T14:11:10.368Z,14.80
2022-09-10T14:13:46.053Z,15.10
2022-09-10T14:16:21.600Z,14.77
2022-09-10T14:18:56.561Z,14.93
2022-09-10T14:21:29.756Z,14.83
2022-09-10T14:24:03.472Z,15.70
2022-09-10T14:26:35.486Z,15.00
2022-09-10T14:29:27.072Z,15.03
2022-09-10T14:31:59.119Z,15.30
2022-09-10T14:34:37.158Z,15.80
2022-09-10T14:37:43.481Z,15.90
2022-09-10T14:40:23.114Z,15.30
2022-09-10T14:42:54.253Z,15.00
2022-09-10T14:45:44.756Z,15.37
2022-09-10T14:48:33.759Z,14.17
2022-09-10T14:51:23.600Z,14.70
2022-09-10T14:53:56.036Z,15.40
2022-09-10T14:56:50.770Z,16.23
2022-09-10T14:59:28.419Z,15.80
2022-09-10T15:02:13.501Z,15.53
2022-09-10T15:04:45.351Z,15.50
2022-09-10T15:07:16.642Z,16.67
2022-09-10T15:09:47.883Z,17.07
2022-09-10T15:12:44.473Z,17.00
2022-09-10T15:15:19.851Z,18.13
2022-09-10T15:17:51.219Z,19.07
2022-09-10T15:23:22.585Z,18.77
2022-09-10T15:25:56.282Z,19.20
2022-09-10T15:28:30.181Z,18.90
2022-09-10T15:31:05.027Z,21.10
2022-09-10T15:33:37.124Z,20.33
2022-09-10T15:36:15.518Z,21.63
2022-09-10T15:38:46.865Z,21.17
2022-09-10T15:41:32.300Z,22.43
2022-09-10T15:44:15.046Z,21.33
2022-09-10T15:46:59.948Z,22.20
2022-09-10T15:49:32.235Z,20.43
2022-09-10T15:52:07.752Z,21.20
2022-09-10T15:54:54.036Z,20.50
2022-09-10T15:57:34.435Z,20.97
2022-09-10T16:00:41.254Z,21.97
2022-09-10T16:08:33.427Z,21.47
2022-09-10T16:11:21.406Z,22.23
2022-09-10T16:14:06.160Z,22.33
2022-09-10T16:16:44.079Z,22.87
2022-09-10T16:19:17.457Z,22.90
2022-09-10T16:21:54.825Z,23.30
2022-09-10T16:24:38.173Z,23.03
2022-09-10T16:27:09.043Z,23.27
2022-09-10T16:29:54.324Z,22.60
2022-09-10T16:32:43.587Z,23.00
2022-09-10T16:35:18.965Z,24.17
2022-09-10T16:37:53.715Z,24.23
2022-09-10T16:40:31.489Z,23.40
2022-09-10T16:43:03.398Z,23.87
2022-09-10T16:51:19.192Z,25.10
2022-09-10T16:53:58.625Z,24.53
2022-09-10T16:56:44.365Z,26.10
2022-09-10T16:59:19.396Z,25.50
2022-09-10T17:01:57.863Z,25.87
2022-09-10T17:04:43.924Z,23.70
2022-09-10T17:07:19.539Z,23.13
2022-09-10T17:13:02.982Z,21.67
2022-09-10T17:15:37.124Z,22.87
2022-09-10T17:21:10.356Z,22.03
2022-09-10T17:23:50.979Z,25.67
2022-09-10T17:26:22.042Z,25.60
2022-09-10T17:28:58.585Z,24.37
2022-09-10T17:31:30.404Z,26.93
2022-09-10T17:34:02.039Z,27.20
2022-09-10T17:36:33.812Z,28.40
2022-09-10T17:39:05.286Z,26.33
2022-09-10T17:41:36.837Z,26.47
2022-09-10T17:44:11.045Z,28.00
2022-09-10T17:46:43.650Z,27.07
2022-09-10T17:49:17.327Z,28.27
2022-09-10T17:51:48.878Z,28.70
2022-09-10T17:54:20.165Z,30.07
2022-09-10T17:56:51.546Z,28.27
2022-09-10T17:59:26.149Z,30.27
2022-09-10T18:01:59.493Z,29.33
2022-09-10T18:04:30.718Z,29.20
2022-09-10T18:07:02.690Z,30.23
2022-09-10T18:09:34.314Z,28.87
2022-09-10T18:12:05.419Z,29.67
2022-09-10T18:14:40.086Z,29.17
2022-09-10T18:17:11.553Z,28.13
2022-09-10T18:19:43.002Z,27.67
2022-09-10T18:22:14.388Z,27.77
2022-09-10T18:24:53.277Z,27.97
2022-09-10T18:27:24.953Z,27.93
2022-09-10T18:30:37.363Z,28.50
2022-09-10T18:33:13.698Z,28.03
2022-09-10T18:35:49.699Z,28.33
2022-09-10T18:38:27.100Z,28.87
2022-09-10T18:41:00.818Z,29.50
2022-09-10T18:43:46.837Z,29.63
2022-09-10T18:46:23.857Z,29.30
2022-09-10T18:48:57.964Z,29.07
2022-09-10T18:51:33.221Z,29.77
2022-09-10T18:54:07.195Z,30.70
2022-09-10T18:56:39.031Z,29.53
2022-09-10T18:59:13.049Z,32.00
2022-09-10T19:01:47.529Z,30.57
2022-09-10T19:04:21.155Z,29.73
2022-09-10T19:06:52.792Z,28.93
2022-09-10T19:09:26.004Z,29.43
2022-09-10T19:11:59.949Z,29.43
2022-09-10T19:14:33.211Z,30.50
2022-09-10T19:17:07.514Z,29.70
2022-09-10T19:19:39.461Z,27.73
2022-09-10T19:22:11.605Z,29.47
2022-09-10T19:24:57.934Z,29.40
2022-09-10T19:27:30.098Z,30.43
2022-09-10T19:30:01.162Z,30.00
2022-09-10T19:32:38.254Z,30.23
2022-09-10T19:35:12.557Z,30.30
2022-09-10T19:37:45.243Z,30.23
2022-09-10T19:40:17.780Z,29.73
2022-09-10T19:42:50.633Z,28.63
2022-09-10T19:45:33.509Z,28.23
2022-09-10T19:50:59.232Z,28.30
2022-09-10T19:53:39.248Z,28.53
2022-09-10T19:56:21.300Z,26.77
2022-09-10T19:59:01.528Z,27.37
2022-09-10T20:01:42.135Z,27.80
2022-09-10T20:04:17.541Z,29.10
2022-09-10T20:06:51.829Z,28.97
2022-09-10T20:09:31.834Z,30.50
2022-09-10T20:12:03.658Z,28.97
2022-09-10T20:14:35.320Z,27.53
2022-09-10T20:17:07.373Z,30.93
2022-09-10T20:20:09.505Z,30.13
2022-09-10T20:22:48.937Z,28.70
2022-09-10T20:28:09.853Z,30.00
2022-09-10T20:30:43.047Z,30.33
2022-09-10T20:33:27.453Z,30.73
2022-09-10T20:36:00.150Z,28.27
2022-09-10T20:38:50.885Z,28.73
2022-09-10T20:41:23.212Z,28.58
2022-09-10T20:43:56.484Z,29.80
2022-09-10T20:46:49.280Z,29.45
2022-09-10T20:49:30.479Z,29.20
2022-09-10T20:52:16.241Z,29.13
2022-09-10T20:54:51.040Z,32.10
2022-09-10T20:57:22.506Z,33.78
2022-09-10T20:59:54.983Z,36.40
2022-09-10T21:02:27.278Z,34.35
2022-09-10T21:05:01.831Z,36.83
2022-09-10T21:07:36.519Z,38.15
2022-09-10T21:10:12.230Z,40.05
2022-09-10T21:12:44.373Z,40.38
2022-09-10T21:15:20.084Z,42.08
2022-09-10T21:17:53.261Z,46.67
2022-09-10T21:20:34.405Z,49.88
2022-09-10T21:23:12.149Z,50.53
2022-09-10T21:25:56.503Z,57.70
2022-09-10T21:31:20.137Z,53.75
2022-09-10T21:33:59.402Z,52.83
2022-09-10T21:36:36.268Z,54.60
2022-09-10T21:39:16.005Z,49.45
2022-09-10T21:41:52.700Z,55.55
2022-09-10T21:44:26.245Z,55.40
2022-09-10T21:47:01.203Z,54.88
2022-09-10T21:49:35.592Z,55.65
2022-09-10T21:52:07.981Z,56.83
2022-09-10T21:54:40.566Z,59.28
2022-09-10T22:00:04.154Z,57.70
2022-09-10T22:02:37.785Z,62.00
2022-09-10T22:05:10.955Z,63.08
2022-09-10T22:07:49.358Z,63.25
2022-09-10T22:10:26.965Z,66.28
2022-09-10T22:13:02.312Z,65.50
2022-09-10T22:15:44.247Z,66.43
2022-09-10T22:18:17.805Z,64.70
2022-09-10T22:20:53.132Z,64.88
2022-09-10T22:23:27.163Z,62.75
2022-09-10T22:26:04.804Z,63.25
2022-09-10T22:28:40.583Z,63.75
2022-09-10T22:31:15.163Z,66.70
2022-09-10T22:36:36.698Z,71.32
2022-09-10T22:39:11.287Z,72.78
2022-09-10T22:52:35.633Z,65.13
2022-09-10T22:55:07.031Z,66.80
2022-09-10T22:57:41.471Z,67.10
2022-09-10T23:00:16.504Z,67.43
2022-09-10T23:02:50.810Z,67.05
2022-09-10T23:05:22.000Z,64.85
2022-09-10T23:07:57.892Z,63.42
2022-09-10T23:10:30.714Z,62.35
2022-09-10T23:13:03.960Z,58.88
2022-09-10T23:15:37.433Z,59.33
2022-09-10T23:18:10.175Z,58.83
2022-09-10T23:20:41.529Z,55.75
2022-09-10T23:23:27.057Z,55.80
2022-09-10T23:25:58.405Z,55.03
2022-09-10T23:28:31.401Z,52.63
2022-09-10T23:31:14.452Z,51.92
2022-09-10T23:33:47.708Z,51.67
2022-09-10T23:36:27.530Z,49.38
2022-09-10T23:39:02.307Z,49.45
2022-09-10T23:41:33.601Z,48.45
2022-09-10T23:44:05.667Z,47.70
2022-09-10T23:46:40.875Z,46.55
2022-09-10T23:49:12.980Z,45.75
2022-09-10T23:51:44.377Z,41.92
2022-09-10T23:54:18.797Z,41.88
2022-09-10T23:56:51.001Z,40.33
2022-09-10T23:59:22.842Z,40.80
